Atalante I — 9HB5423 — position and weather

sailwx.info

Track history (hours):
 
Tides and Currents Weather Stations Pressure Air Temp Water Temp Dewpoint Dewpoint Depression Visibility Wind Speed Wind Dir Waves Ship Positions

Atalante I

Last reported at 2018-Jan-12 14:51 UTC. Time now 2018-Jan-22 22:27 UTC.
Position N 28°08' W 015°26'.
Warning: this ship's position is 10 days out of date.

Length 27 m; draft 6.9 m.

Type: Pleasure craft. MMSI: 248090000.

Date/timePositionNaut miles runAvg speedWind from/ knotsBaromVisibWave heightAir tempDewpointWater temp
2018-Jan-12 14:51N 28°08' W 015°26'0 0.0
2018-Jan-12 14:21N 28°08' W 015°26'0 0.0
2018-Jan-12 13:54N 28°08' W 015°26'0 0.0
2018-Jan-12 13:24N 28°08' W 015°26'0 0.0
2018-Jan-12 12:54N 28°08' W 015°26'0 0.0
2018-Jan-12 12:24N 28°08' W 015°26'0 0.0
2018-Jan-12 11:54N 28°08' W 015°26'0 0.0
2018-Jan-12 11:24N 28°08' W 015°26'0 0.0
2018-Jan-12 10:57N 28°08' W 015°26'0 0.0
2018-Jan-12 10:27N 28°08' W 015°26'0 0.0
2018-Jan-12 09:57N 28°08' W 015°26'0 0.1
2018-Jan-12 09:27N 28°08' W 015°26'0 0.1
2018-Jan-12 08:57N 28°08' W 015°26'0 0.0
2018-Jan-12 08:27N 28°08' W 015°26'0 0.0
2018-Jan-12 08:00N 28°08' W 015°26'0 0.0
2018-Jan-12 07:30N 28°08' W 015°26'0 0.0
2018-Jan-12 07:00N 28°08' W 015°26'0 0.0
2018-Jan-12 06:30N 28°08' W 015°26'0 0.0
2018-Jan-12 06:00N 28°08' W 015°26'0 0.0
2018-Jan-12 05:30N 28°08' W 015°26'0 0.0
2018-Jan-12 05:00N 28°08' W 015°26'0 0.0
2018-Jan-12 04:30N 28°08' W 015°26'0 0.0
2018-Jan-12 04:00N 28°08' W 015°26'0 0.0
2018-Jan-12 03:30N 28°08' W 015°26'0 0.0
2018-Jan-12 03:00N 28°08' W 015°26'0 0.0
2018-Jan-12 02:30N 28°08' W 015°26'0 0.0
2018-Jan-12 02:00N 28°08' W 015°26'0 0.0
2018-Jan-12 01:30N 28°08' W 015°26'0 0.0
2018-Jan-12 00:51N 28°08' W 015°26'0 0.0
2018-Jan-12 00:21N 28°08' W 015°26'0 0.0
2018-Jan-11 23:54N 28°08' W 015°26'0 0.0
2018-Jan-11 23:24N 28°08' W 015°26'0 0.0
2018-Jan-11 22:54N 28°08' W 015°26'0 0.0
2018-Jan-11 22:24N 28°08' W 015°26'0 0.0
2018-Jan-11 21:54N 28°08' W 015°26'0 0.0
2018-Jan-11 21:24N 28°08' W 015°26'0 0.0
2018-Jan-11 20:57N 28°08' W 015°26'0 0.0
2018-Jan-11 20:27N 28°08' W 015°26'0 0.0
2018-Jan-11 19:57N 28°08' W 015°26'0 0.0
2018-Jan-11 19:27N 28°08' W 015°26'0 0.0
2018-Jan-11 18:57N 28°08' W 015°26'0 0.0
2018-Jan-11 18:27N 28°08' W 015°26'0 0.0
2018-Jan-11 18:00N 28°08' W 015°26'0 0.0
2018-Jan-11 17:30N 28°08' W 015°26'0 0.0
2018-Jan-11 16:42N 28°08' W 015°26'0 0.0
2018-Jan-11 16:30N 28°08' W 015°26'0 0.0
2018-Jan-11 16:00N 28°08' W 015°26'0 0.0
2018-Jan-11 15:30N 28°08' W 015°26'2 3.1
2018-Jan-11 15:00N 28°07' W 015°24'4 8.2
2018-Jan-11 14:30N 28°10' W 015°20'4 8.3
2018-Jan-11 14:00N 28°12' W 015°16'4 8.5
2018-Jan-11 13:30N 28°15' W 015°12'4 8.2
2018-Jan-11 12:59N 28°18' W 015°09'2 3.2
2018-Jan-11 12:30N 28°19' W 015°08'4 7.9
2018-Jan-11 12:00N 28°23' W 015°06'4 6.5
2018-Jan-11 11:20N 28°27' W 015°04'  
2018-Jan-04 05:13N 37°22' W 000°53'5 7.4
2018-Jan-04 04:35N 37°25' W 000°48'1 7.5
2018-Jan-04 04:26N 37°26' W 000°47'193 6.8
2018-Jan-03 00:11N 39°24' E 002°27'2 6.9
2018-Jan-02 23:53N 39°25' E 002°29'3 7.1
2018-Jan-02 23:30N 39°27' E 002°32'4 7.7
2018-Jan-02 22:59N 39°30' E 002°36'4 7.8
2018-Jan-02 22:30N 39°33' E 002°39'1 2.1
2018-Jan-02 22:00N 39°33' E 002°38'0 0.0
2018-Jan-02 21:30N 39°33' E 002°38'0 0.0
2018-Jan-02 21:00N 39°33' E 002°38'0 0.0
2018-Jan-02 20:30N 39°33' E 002°38'0 0.0
2018-Jan-02 20:00N 39°33' E 002°38'0 0.0
2018-Jan-02 19:30N 39°33' E 002°38'0 0.0
2018-Jan-02 18:54N 39°33' E 002°38'0 0.0
2018-Jan-02 18:30N 39°33' E 002°38'0 0.0
2018-Jan-02 18:00N 39°33' E 002°38'0 0.0
2018-Jan-02 17:30N 39°33' E 002°38'0 0.0
2018-Jan-02 17:00N 39°33' E 002°38'0 0.0
2018-Jan-02 16:30N 39°33' E 002°38'0 0.0
2018-Jan-02 16:00N 39°33' E 002°38'0 0.0
2018-Jan-02 15:30N 39°33' E 002°38'0 0.0
2018-Jan-02 15:00N 39°33' E 002°38'  
Track history (hours):
 
Tides and Currents Weather Stations Pressure Air Temp Water Temp Dewpoint Dewpoint Depression Visibility Wind Speed Wind Dir Waves Ship Positions

Atalante I

Last reported at 2018-Jan-12 14:51 UTC. Time now 2018-Jan-22 22:27 UTC.
Position N 28°08' W 015°26'.
Warning: this ship's position is 10 days out of date.

Length 27 m; draft 6.9 m.

Type: Pleasure craft. MMSI: 248090000.

Date/timePositionNaut miles runAvg speedWind from/ knotsBaromVisibWave heightAir tempDewpointWater temp
2018-Jan-12 14:51N 28°08' W 015°26'0 0.0
2018-Jan-12 14:21N 28°08' W 015°26'0 0.0
2018-Jan-12 13:54N 28°08' W 015°26'0 0.0
2018-Jan-12 13:24N 28°08' W 015°26'0 0.0
2018-Jan-12 12:54N 28°08' W 015°26'0 0.0
2018-Jan-12 12:24N 28°08' W 015°26'0 0.0
2018-Jan-12 11:54N 28°08' W 015°26'0 0.0
2018-Jan-12 11:24N 28°08' W 015°26'0 0.0
2018-Jan-12 10:57N 28°08' W 015°26'0 0.0
2018-Jan-12 10:27N 28°08' W 015°26'0 0.0
2018-Jan-12 09:57N 28°08' W 015°26'0 0.1
2018-Jan-12 09:27N 28°08' W 015°26'0 0.1
2018-Jan-12 08:57N 28°08' W 015°26'0 0.0
2018-Jan-12 08:27N 28°08' W 015°26'0 0.0
2018-Jan-12 08:00N 28°08' W 015°26'0 0.0
2018-Jan-12 07:30N 28°08' W 015°26'0 0.0
2018-Jan-12 07:00N 28°08' W 015°26'0 0.0
2018-Jan-12 06:30N 28°08' W 015°26'0 0.0
2018-Jan-12 06:00N 28°08' W 015°26'0 0.0
2018-Jan-12 05:30N 28°08' W 015°26'0 0.0
2018-Jan-12 05:00N 28°08' W 015°26'0 0.0
2018-Jan-12 04:30N 28°08' W 015°26'0 0.0
2018-Jan-12 04:00N 28°08' W 015°26'0 0.0
2018-Jan-12 03:30N 28°08' W 015°26'0 0.0
2018-Jan-12 03:00N 28°08' W 015°26'0 0.0
2018-Jan-12 02:30N 28°08' W 015°26'0 0.0
2018-Jan-12 02:00N 28°08' W 015°26'0 0.0
2018-Jan-12 01:30N 28°08' W 015°26'0 0.0
2018-Jan-12 00:51N 28°08' W 015°26'0 0.0
2018-Jan-12 00:21N 28°08' W 015°26'0 0.0
2018-Jan-11 23:54N 28°08' W 015°26'0 0.0
2018-Jan-11 23:24N 28°08' W 015°26'0 0.0
2018-Jan-11 22:54N 28°08' W 015°26'0 0.0
2018-Jan-11 22:24N 28°08' W 015°26'0 0.0
2018-Jan-11 21:54N 28°08' W 015°26'0 0.0
2018-Jan-11 21:24N 28°08' W 015°26'0 0.0
2018-Jan-11 20:57N 28°08' W 015°26'0 0.0
2018-Jan-11 20:27N 28°08' W 015°26'0 0.0
2018-Jan-11 19:57N 28°08' W 015°26'0 0.0
2018-Jan-11 19:27N 28°08' W 015°26'0 0.0
2018-Jan-11 18:57N 28°08' W 015°26'0 0.0
2018-Jan-11 18:27N 28°08' W 015°26'0 0.0
2018-Jan-11 18:00N 28°08' W 015°26'0 0.0
2018-Jan-11 17:30N 28°08' W 015°26'0 0.0
2018-Jan-11 16:42N 28°08' W 015°26'0 0.0
2018-Jan-11 16:30N 28°08' W 015°26'0 0.0
2018-Jan-11 16:00N 28°08' W 015°26'0 0.0
2018-Jan-11 15:30N 28°08' W 015°26'2 3.1
2018-Jan-11 15:00N 28°07' W 015°24'4 8.2
2018-Jan-11 14:30N 28°10' W 015°20'4 8.3
2018-Jan-11 14:00N 28°12' W 015°16'4 8.5
2018-Jan-11 13:30N 28°15' W 015°12'4 8.2
2018-Jan-11 12:59N 28°18' W 015°09'2 3.2
2018-Jan-11 12:30N 28°19' W 015°08'4 7.9
2018-Jan-11 12:00N 28°23' W 015°06'4 6.5
2018-Jan-11 11:20N 28°27' W 015°04'  
2018-Jan-04 05:13N 37°22' W 000°53'5 7.4
2018-Jan-04 04:35N 37°25' W 000°48'1 7.5
2018-Jan-04 04:26N 37°26' W 000°47'193 6.8
2018-Jan-03 00:11N 39°24' E 002°27'2 6.9
2018-Jan-02 23:53N 39°25' E 002°29'3 7.1
2018-Jan-02 23:30N 39°27' E 002°32'4 7.7
2018-Jan-02 22:59N 39°30' E 002°36'4 7.8
2018-Jan-02 22:30N 39°33' E 002°39'1 2.1
2018-Jan-02 22:00N 39°33' E 002°38'0 0.0
2018-Jan-02 21:30N 39°33' E 002°38'0 0.0
2018-Jan-02 21:00N 39°33' E 002°38'0 0.0
2018-Jan-02 20:30N 39°33' E 002°38'0 0.0
2018-Jan-02 20:00N 39°33' E 002°38'0 0.0
2018-Jan-02 19:30N 39°33' E 002°38'0 0.0
2018-Jan-02 18:54N 39°33' E 002°38'0 0.0
2018-Jan-02 18:30N 39°33' E 002°38'0 0.0
2018-Jan-02 18:00N 39°33' E 002°38'0 0.0
2018-Jan-02 17:30N 39°33' E 002°38'0 0.0
2018-Jan-02 17:00N 39°33' E 002°38'0 0.0
2018-Jan-02 16:30N 39°33' E 002°38'0 0.0
2018-Jan-02 16:00N 39°33' E 002°38'0 0.0
2018-Jan-02 15:30N 39°33' E 002°38'0 0.0
2018-Jan-02 15:00N 39°33' E 002°38'  

Dump ship's entire track history